HEG weather

Herlong Airport
Jacksonville, Florida, United States

Public forecast

Using degrees Fahrenheit for public forecast. Weather courtesy of forecast.io.

Closest aviation weather report (METAR) to Herlong Airport

Closest report is Cecil Airport, 5.1 nm (9.5 km) SW. Retrieved 2020/07/02 20:50 UTC (38 minutes ago):

KVQQ 022050Z 27010KT 10SM BKN050 34/21 A2987

Closest aviation forecast (TAF) to Herlong Airport

Closest forecast is Cecil Airport, 5.1 nm (9.5 km) SW. Retrieved 2020/07/02 18:22 UTC (3 hours ago):

TAF KVQQ 021720Z 0218/0318 26011KT P6SM VCTS SCT030CB BKN250 TEMPO 0219/0223 VRB15G30KT 4SM TSRA BKN030CB FM030200 25004KT P6SM SCT120 FM031300 29005KT P6SM SCT030 SCT120